»·PEaware :: N132EF KPSP-KMYF

N132EF :: KPSP-KMYF

FLIGHT INFORMATION

Flight Status: Arrived
Operator: Privately registered:
United States
More flights under this callsign
Pilot: Ron R. (25532)
Aircraft: BEECH AIRCRAFT DUKE
(BE60)
More flights by this aircraft type
Origin: KPSP Palm Springs Intl
United States
Destination: KMYF Montgomery
United States
More flights between these airports :: More routes between these airports
Route: +CATH1 PSP TRM V514 MZB
File this flight plan on PilotEdge
Remarks:
Altitude:
(Current/Filed)
10,000ft
Speed:
(Current/Filed)
200kts
Departed: 27-Aug-19 08:54 PM
Arrived: 27-Aug-19 09:36 PM
Distance/Time
Traveled:
69nm/0:42
Distance/Time
To Go:
Arrived

Flight Plot

Page will automatically refresh every two minutes.


Map Options




Map Legend


Flown Route
Filed Route
Departure Airport
Arrival Airport
Navaid (VOR, NDB)
Fix

Horizontal Profiles

Position Reports

Time Latitude Longitude Heading Altitude Ground
Speed
27-Aug-19 20:23 33.825231 -116.508836 180 480ft 0kts
27-Aug-19 20:24 33.825231 -116.508836 180 480ft 0kts
27-Aug-19 20:25 33.825231 -116.508836 180 480ft 0kts
27-Aug-19 20:25 33.825231 -116.508836 180 480ft 0kts
27-Aug-19 20:27 33.825229 -116.508836 180 480ft 0kts
27-Aug-19 20:27 33.825227 -116.508836 180 480ft 0kts
27-Aug-19 20:29 33.825224 -116.508836 180 480ft 0kts
27-Aug-19 20:29 33.825221 -116.508836 180 480ft 0kts
27-Aug-19 20:30 33.825219 -116.508836 180 480ft 0kts
27-Aug-19 20:31 33.825216 -116.508836 180 480ft 0kts
27-Aug-19 20:32 33.825213 -116.508836 180 480ft 0kts
27-Aug-19 20:33 33.825211 -116.508836 180 480ft 0kts
27-Aug-19 20:34 33.825208 -116.508836 180 480ft 0kts
27-Aug-19 20:35 33.825205 -116.508836 180 480ft 0kts
27-Aug-19 20:36 33.825203 -116.508836 180 480ft 0kts
27-Aug-19 20:37 33.825200 -116.508836 180 480ft 0kts
27-Aug-19 20:38 33.825197 -116.508836 180 480ft 0kts
27-Aug-19 20:39 33.825195 -116.508836 180 480ft 0kts
27-Aug-19 20:40 33.825238 -116.508712 101 480ft 4kts
27-Aug-19 20:41 33.824544 -116.506297 59 480ft 10kts
27-Aug-19 20:42 33.823520 -116.503924 143 480ft 8kts
27-Aug-19 20:43 33.822840 -116.502627 356 480ft 0kts
27-Aug-19 20:44 33.822842 -116.502627 356 480ft 0kts
27-Aug-19 20:45 33.822845 -116.502627 356 480ft 0kts
27-Aug-19 20:46 33.822849 -116.502628 356 480ft 0kts
27-Aug-19 20:47 33.822858 -116.502628 356 480ft 0kts
27-Aug-19 20:48 33.822863 -116.502629 356 480ft 0kts
27-Aug-19 20:49 33.822866 -116.502629 356 480ft 0kts
27-Aug-19 20:50 33.823067 -116.502584 71 480ft 0kts
27-Aug-19 20:51 33.823068 -116.502580 71 480ft 0kts
27-Aug-19 20:52 33.823724 -116.502345 324 480ft 22kts
27-Aug-19 20:53 33.848512 -116.525124 319 1481ft 131kts
27-Aug-19 20:54 33.880163 -116.553509 321 3043ft 150kts
27-Aug-19 20:55 33.918278 -116.573780 12 4722ft 164kts
27-Aug-19 20:56 33.922386 -116.532018 134 6267ft 154kts
27-Aug-19 20:57 33.890509 -116.497973 142 7840ft 154kts
27-Aug-19 20:58 33.860316 -116.460833 133 9246ft 157kts
27-Aug-19 20:59 33.829570 -116.419848 135 9993ft 180kts
27-Aug-19 21:00 33.792147 -116.371564 134 9997ft 209kts
27-Aug-19 21:01 33.753401 -116.321498 135 9979ft 199kts
27-Aug-19 21:02 33.716222 -116.273485 134 9960ft 196kts
27-Aug-19 21:03 33.678476 -116.224856 134 9938ft 200kts
27-Aug-19 21:04 33.638873 -116.178202 155 9927ft 198kts
27-Aug-19 21:05 33.590169 -116.193294 217 9986ft 193kts
27-Aug-19 21:06 33.546674 -116.231758 216 9989ft 194kts
27-Aug-19 21:07 33.503092 -116.269922 216 9999ft 194kts
27-Aug-19 21:08 33.459481 -116.308106 215 10011ft 194kts
27-Aug-19 21:09 33.415834 -116.346271 215 10023ft 194kts
27-Aug-19 21:10 33.372101 -116.384469 215 10038ft 194kts
27-Aug-19 21:11 33.328375 -116.422603 215 10053ft 195kts
27-Aug-19 21:12 33.284394 -116.460913 215 10072ft 195kts
27-Aug-19 21:13 33.240636 -116.498982 215 10123ft 194kts
27-Aug-19 21:14 33.196953 -116.536942 215 10166ft 194kts
27-Aug-19 21:15 33.153163 -116.574935 215 10181ft 195kts
27-Aug-19 21:16 33.100750 -116.590818 191 9973ft 200kts
27-Aug-19 21:17 33.049409 -116.614183 202 9980ft 196kts
27-Aug-19 21:18 32.999194 -116.639460 202 9983ft 195kts
27-Aug-19 21:19 32.948890 -116.664850 202 9209ft 195kts
27-Aug-19 21:20 32.904123 -116.687016 202 7724ft 163kts
27-Aug-19 21:21 32.861666 -116.707528 202 6231ft 168kts
27-Aug-19 21:22 32.818175 -116.728264 202 5026ft 160kts
27-Aug-19 21:23 32.776487 -116.747866 202 4984ft 161kts
27-Aug-19 21:24 32.736797 -116.766789 202 4978ft 141kts
27-Aug-19 21:25 32.703240 -116.785760 238 4972ft 130kts
27-Aug-19 21:26 32.702190 -116.828097 265 4987ft 129kts
27-Aug-19 21:27 32.708511 -116.869897 291 4985ft 130kts
27-Aug-19 21:28 32.724816 -116.909697 294 4522ft 133kts
27-Aug-19 21:29 32.740665 -116.948552 293 3777ft 126kts
27-Aug-19 21:30 32.755047 -116.984678 293 3095ft 116kts
27-Aug-19 21:31 32.768450 -117.018470 293 2501ft 110kts
27-Aug-19 21:32 32.781110 -117.050506 293 1944ft 106kts
27-Aug-19 21:33 32.794709 -117.085076 293 1369ft 122kts
27-Aug-19 21:34 32.808548 -117.120199 292 724ft 110kts
27-Aug-19 21:35 32.818015 -117.144371 293 430ft 16kts
27-Aug-19 21:36 32.817775 -117.145217 204 430ft 0kts
27-Aug-19 21:37 32.817772 -117.145219 204 430ft 0kts
27-Aug-19 21:38 32.816174 -117.146054 204 430ft 7kts
27-Aug-19 21:39 32.815080 -117.145936 156 430ft 7kts
27-Aug-19 21:40 32.814978 -117.143387 62 430ft 11kts
27-Aug-19 21:41 32.813931 -117.140500 205 430ft 8kts
27-Aug-19 21:42 32.813285 -117.140523 23 430ft 0kts
27-Aug-19 21:43 32.813286 -117.140522 23 430ft 0kts
27-Aug-19 21:44 32.813286 -117.140522 23 430ft 0kts
27-Aug-19 21:45 32.813286 -117.140522 23 430ft 0kts
27-Aug-19 21:46 32.813286 -117.140522 23 430ft 0kts
27-Aug-19 21:47 32.813286 -117.140522 23 430ft 0kts
27-Aug-19 21:48 32.813286 -117.140522 23 430ft 0kts
27-Aug-19 21:49 32.813286 -117.140522 23 430ft 0kts

Navigation Log

Ident Type
Flight plan parsing failed, navigation log unavailable